createdAt,value
2017-11-21T00:02:15.562Z,2.20
2017-11-21T00:04:43.055Z,1.73
2017-11-21T00:07:10.574Z,1.73
2017-11-21T00:09:38.093Z,2.10
2017-11-21T00:12:05.611Z,2.00
2017-11-21T00:14:33.138Z,2.00
2017-11-21T00:17:00.661Z,1.50
2017-11-21T00:19:28.192Z,1.37
2017-11-21T00:21:55.680Z,1.60
2017-11-21T00:24:23.209Z,1.23
2017-11-21T00:26:50.713Z,1.10
2017-11-21T00:29:19.000Z,1.30
2017-11-21T00:31:46.517Z,1.30
2017-11-21T00:34:14.040Z,1.20
2017-11-21T00:36:41.686Z,1.87
2017-11-21T00:39:09.215Z,1.30
2017-11-21T00:41:37.501Z,1.40
2017-11-21T00:44:05.772Z,2.00
2017-11-21T00:46:34.029Z,1.13
2017-11-21T00:49:01.545Z,1.40
2017-11-21T00:51:29.040Z,1.50
2017-11-21T00:53:56.564Z,1.60
2017-11-21T00:56:24.053Z,1.50
2017-11-21T00:58:53.103Z,1.37
2017-11-21T01:01:20.614Z,1.37
2017-11-21T01:03:48.113Z,1.50
2017-11-21T01:06:15.663Z,1.20
2017-11-21T01:08:43.217Z,1.03
2017-11-21T01:11:10.737Z,1.10
2017-11-21T01:13:38.343Z,1.03
2017-11-21T01:16:05.847Z,1.27
2017-11-21T01:18:33.361Z,1.00
2017-11-21T01:21:00.897Z,1.00
2017-11-21T01:23:28.405Z,0.90
2017-11-21T01:25:55.898Z,0.87
2017-11-21T01:28:23.425Z,1.10
2017-11-21T01:30:50.940Z,1.10
2017-11-21T01:33:18.501Z,1.10
2017-11-21T01:35:45.999Z,1.30
2017-11-21T01:38:13.496Z,1.10
2017-11-21T01:40:41.797Z,1.00
2017-11-21T01:43:09.329Z,1.10
2017-11-21T01:45:37.737Z,1.10
2017-11-21T01:48:05.282Z,1.10
2017-11-21T01:50:32.837Z,1.50
2017-11-21T01:53:01.085Z,0.93
2017-11-21T01:55:29.346Z,0.87
2017-11-21T01:57:58.372Z,0.80
2017-11-21T02:00:25.870Z,0.90
2017-11-21T02:03:04.504Z,0.83
2017-11-21T02:05:32.000Z,0.90
2017-11-21T02:08:00.311Z,0.90
2017-11-21T02:10:27.838Z,0.80
2017-11-21T02:12:56.101Z,0.80
2017-11-21T02:15:24.399Z,0.90
2017-11-21T02:17:51.944Z,0.80
2017-11-21T02:20:20.239Z,0.90
2017-11-21T02:22:47.732Z,0.97
2017-11-21T02:25:15.260Z,0.90
2017-11-21T02:27:42.744Z,0.90
2017-11-21T02:30:10.281Z,0.80
2017-11-21T02:32:37.799Z,0.87
2017-11-21T02:35:06.077Z,0.90
2017-11-21T02:37:34.357Z,0.90
2017-11-21T02:40:01.870Z,0.90
2017-11-21T02:42:29.399Z,0.97
2017-11-21T02:44:56.889Z,0.90
2017-11-21T02:47:24.393Z,1.00
2017-11-21T02:49:51.915Z,1.10
2017-11-21T02:52:19.509Z,1.10
2017-11-21T02:54:47.071Z,0.90
2017-11-21T02:57:14.647Z,0.80
2017-11-21T02:59:42.177Z,0.90
2017-11-21T03:02:10.429Z,0.80
2017-11-21T03:04:37.963Z,1.00
2017-11-21T03:07:05.473Z,0.90
2017-11-21T03:09:33.005Z,0.90
2017-11-21T03:12:00.499Z,0.93
2017-11-21T03:14:28.003Z,0.80
2017-11-21T03:16:55.532Z,1.00
2017-11-21T03:19:23.074Z,0.90
2017-11-21T03:22:02.633Z,1.10
2017-11-21T03:24:41.995Z,0.80
2017-11-21T03:27:11.430Z,0.90
2017-11-21T03:29:39.695Z,0.80
2017-11-21T03:32:07.974Z,0.80
2017-11-21T03:34:36.237Z,1.00
2017-11-21T03:37:04.570Z,1.00
2017-11-21T03:39:32.071Z,0.87
2017-11-21T03:42:00.359Z,0.90
2017-11-21T03:44:28.653Z,0.90
2017-11-21T03:46:56.146Z,1.00
2017-11-21T03:49:23.663Z,0.77
2017-11-21T03:51:51.153Z,0.80
2017-11-21T03:54:18.681Z,0.83
2017-11-21T03:56:46.183Z,0.90
2017-11-21T03:59:13.679Z,0.70
2017-11-21T04:01:41.973Z,0.90
2017-11-21T04:04:09.470Z,1.00
2017-11-21T04:06:37.007Z,1.00
2017-11-21T04:09:04.505Z,0.70
2017-11-21T04:11:32.018Z,0.90
2017-11-21T04:13:59.652Z,1.30
2017-11-21T04:16:27.937Z,0.90
2017-11-21T04:18:55.446Z,0.90
2017-11-21T04:21:22.973Z,0.70
2017-11-21T04:23:50.480Z,0.90
2017-11-21T04:26:18.774Z,0.80
2017-11-21T04:28:47.034Z,0.83
2017-11-21T04:31:15.346Z,1.00
2017-11-21T04:33:43.014Z,0.90
2017-11-21T04:36:10.563Z,0.90
2017-11-21T04:38:38.058Z,1.03
2017-11-21T04:41:05.585Z,0.90
2017-11-21T04:43:33.086Z,0.80
2017-11-21T04:46:00.591Z,0.90
2017-11-21T04:48:28.105Z,0.87
2017-11-21T04:50:55.625Z,0.80
2017-11-21T04:53:23.145Z,0.90
2017-11-21T04:55:51.402Z,0.70
2017-11-21T04:58:19.673Z,0.80
2017-11-21T05:00:47.982Z,0.80
2017-11-21T05:03:15.522Z,0.80
2017-11-21T05:05:43.782Z,0.80
2017-11-21T05:08:11.369Z,0.90
2017-11-21T05:10:38.939Z,0.90
2017-11-21T05:13:06.433Z,0.90
2017-11-21T05:15:33.945Z,1.00
2017-11-21T05:18:01.458Z,0.80
2017-11-21T05:20:29.066Z,0.80
2017-11-21T05:22:56.729Z,0.80
2017-11-21T05:25:24.281Z,0.90
2017-11-21T05:27:51.793Z,0.87
2017-11-21T05:30:19.277Z,1.00
2017-11-21T05:32:59.455Z,0.90
2017-11-21T05:35:26.943Z,0.80
2017-11-21T05:37:54.456Z,1.00
2017-11-21T05:40:22.030Z,0.90
2017-11-21T05:42:49.530Z,1.00
2017-11-21T05:45:17.046Z,1.00
2017-11-21T05:47:44.554Z,1.00
2017-11-21T05:50:12.080Z,1.00
2017-11-21T05:52:39.604Z,0.90
2017-11-21T05:55:07.111Z,0.80
2017-11-21T05:57:35.469Z,0.83
2017-11-21T06:00:02.963Z,1.20
2017-11-21T06:02:30.545Z,0.80
2017-11-21T06:04:58.823Z,1.10
2017-11-21T06:07:27.106Z,1.00
2017-11-21T06:09:54.625Z,1.10
2017-11-21T06:12:22.118Z,1.10
2017-11-21T06:14:50.406Z,1.43
2017-11-21T06:17:17.905Z,1.33
2017-11-21T06:19:45.420Z,1.67
2017-11-21T06:22:12.980Z,1.40
2017-11-21T06:24:40.514Z,1.60
2017-11-21T06:27:08.779Z,1.00
2017-11-21T06:29:37.080Z,1.37
2017-11-21T06:32:04.634Z,1.00
2017-11-21T06:34:32.901Z,1.40
2017-11-21T06:37:01.164Z,1.50
2017-11-21T06:39:28.764Z,1.10
2017-11-21T06:41:56.295Z,1.57
2017-11-21T06:44:24.578Z,1.40
2017-11-21T06:46:52.834Z,1.10
2017-11-21T06:49:21.140Z,0.90
2017-11-21T06:51:48.632Z,1.30
2017-11-21T06:54:16.167Z,1.20
2017-11-21T06:56:43.680Z,1.00
2017-11-21T06:59:11.934Z,1.10
2017-11-21T07:01:39.459Z,1.00
2017-11-21T07:04:06.957Z,1.20
2017-11-21T07:06:34.478Z,0.90
2017-11-21T07:09:01.980Z,1.00
2017-11-21T07:11:29.501Z,1.00
2017-11-21T07:13:56.990Z,0.90
2017-11-21T07:16:24.483Z,0.80
2017-11-21T07:18:52.008Z,0.80
2017-11-21T07:21:19.510Z,1.00
2017-11-21T07:23:47.084Z,1.40
2017-11-21T07:26:14.622Z,1.00
2017-11-21T07:28:42.149Z,0.90
2017-11-21T07:31:10.415Z,1.23
2017-11-21T07:33:37.965Z,1.00
2017-11-21T07:36:05.483Z,1.10
2017-11-21T07:38:33.024Z,0.97
2017-11-21T07:41:00.554Z,1.00
2017-11-21T07:43:28.855Z,1.20
2017-11-21T07:45:56.396Z,1.67
2017-11-21T07:48:24.666Z,1.10
2017-11-21T07:50:52.968Z,1.00
2017-11-21T07:53:20.466Z,1.03
2017-11-21T07:55:48.003Z,0.87
2017-11-21T07:58:15.529Z,1.23
2017-11-21T08:00:43.037Z,0.97
2017-11-21T08:03:10.560Z,0.90
2017-11-21T08:05:38.105Z,0.90
2017-11-21T08:08:05.641Z,1.07
2017-11-21T08:10:33.245Z,1.00
2017-11-21T08:13:00.742Z,0.93
2017-11-21T08:15:28.259Z,0.83
2017-11-21T08:17:55.759Z,0.90
2017-11-21T08:20:23.284Z,1.00
2017-11-21T08:22:50.786Z,1.10
2017-11-21T08:25:19.090Z,0.90
2017-11-21T08:27:46.625Z,0.90
2017-11-21T08:30:15.040Z,1.00
2017-11-21T08:32:42.534Z,1.00
2017-11-21T08:35:10.034Z,1.23
2017-11-21T08:37:37.551Z,0.90
2017-11-21T08:40:05.060Z,0.90
2017-11-21T08:42:32.606Z,0.80
2017-11-21T08:45:00.887Z,0.90
2017-11-21T08:47:28.396Z,1.20
2017-11-21T08:49:56.020Z,1.00
2017-11-21T08:52:23.510Z,1.00
2017-11-21T08:54:51.037Z,1.40
2017-11-21T08:57:18.537Z,1.10
2017-11-21T08:59:46.084Z,1.00
2017-11-21T09:02:13.603Z,0.90
2017-11-21T09:04:41.250Z,1.10
2017-11-21T09:07:08.767Z,1.30
2017-11-21T09:09:36.387Z,0.90
2017-11-21T09:12:03.928Z,1.00
2017-11-21T09:14:31.418Z,0.90
2017-11-21T09:16:58.971Z,0.97
2017-11-21T09:19:26.462Z,1.00
2017-11-21T09:21:53.992Z,1.00
2017-11-21T09:24:21.529Z,1.00
2017-11-21T09:26:49.094Z,1.20
2017-11-21T09:29:16.634Z,1.33
2017-11-21T09:31:44.207Z,1.00
2017-11-21T09:34:11.738Z,1.33
2017-11-21T09:36:40.054Z,1.40
2017-11-21T09:39:07.584Z,1.23
2017-11-21T09:41:35.124Z,1.33
2017-11-21T09:44:03.387Z,1.20
2017-11-21T09:46:30.918Z,1.10
2017-11-21T09:48:58.410Z,1.20
2017-11-21T09:51:26.710Z,0.90
2017-11-21T09:53:54.274Z,1.70
2017-11-21T09:56:21.825Z,1.20
2017-11-21T09:58:49.348Z,1.20
2017-11-21T10:01:16.834Z,1.40
2017-11-21T10:03:44.402Z,1.20
2017-11-21T10:06:11.901Z,1.33
2017-11-21T10:08:39.512Z,1.30
2017-11-21T10:11:07.077Z,1.17
2017-11-21T10:13:34.612Z,1.37
2017-11-21T10:16:02.884Z,1.57
2017-11-21T10:18:31.153Z,1.40
2017-11-21T10:20:58.738Z,2.07
2017-11-21T10:23:26.294Z,1.50
2017-11-21T10:25:53.856Z,2.13
2017-11-21T10:28:21.353Z,1.50
2017-11-21T10:30:48.898Z,2.00
2017-11-21T10:33:16.414Z,1.43
2017-11-21T10:35:44.694Z,1.70
2017-11-21T10:38:12.990Z,1.70
2017-11-21T10:40:40.485Z,1.87
2017-11-21T10:43:07.997Z,2.00
2017-11-21T10:45:35.515Z,2.20
2017-11-21T10:48:03.037Z,3.00
2017-11-21T10:50:30.561Z,3.03
2017-11-21T10:52:58.077Z,3.50
2017-11-21T10:55:25.682Z,3.00
2017-11-21T10:57:53.215Z,3.50
2017-11-21T11:00:21.488Z,2.67
2017-11-21T11:02:49.777Z,3.00
2017-11-21T11:05:18.061Z,3.20
2017-11-21T11:07:46.337Z,2.83
2017-11-21T11:10:13.861Z,2.90
2017-11-21T11:12:41.350Z,3.27
2017-11-21T11:15:08.889Z,3.20
2017-11-21T11:17:37.218Z,3.00
2017-11-21T11:20:04.741Z,3.10
2017-11-21T11:22:32.253Z,2.80
2017-11-21T11:24:59.794Z,3.03
2017-11-21T11:27:27.343Z,2.40
2017-11-21T11:29:54.850Z,2.50
2017-11-21T11:32:22.487Z,3.60
2017-11-21T11:34:50.637Z,3.17
2017-11-21T11:37:18.238Z,2.80
2017-11-21T11:39:45.850Z,3.10
2017-11-21T11:42:13.441Z,3.10
2017-11-21T11:44:41.046Z,3.80
2017-11-21T11:47:08.630Z,3.90
2017-11-21T11:49:36.208Z,3.70
2017-11-21T11:52:04.806Z,3.60
2017-11-21T11:54:32.711Z,3.67
2017-11-21T11:57:00.322Z,3.80
2017-11-21T11:59:27.911Z,4.77
2017-11-21T12:01:56.302Z,4.43
2017-11-21T12:04:24.676Z,3.93
2017-11-21T12:06:52.318Z,3.93
2017-11-21T12:09:20.114Z,3.37
2017-11-21T12:11:47.767Z,3.80
2017-11-21T12:14:15.440Z,3.97
2017-11-21T12:16:43.178Z,4.50
2017-11-21T12:19:11.570Z,4.03
2017-11-21T12:21:46.941Z,4.23
2017-11-21T12:24:14.570Z,4.10
2017-11-21T12:26:42.975Z,4.50
2017-11-21T12:29:10.775Z,4.30
2017-11-21T12:31:39.183Z,4.63
2017-11-21T12:34:07.590Z,3.70
2017-11-21T12:36:35.190Z,3.60
2017-11-21T12:39:02.848Z,3.10
2017-11-21T12:41:30.588Z,2.97
2017-11-21T12:43:59.165Z,2.77
2017-11-21T12:46:26.784Z,3.20
2017-11-21T12:48:55.163Z,3.83
2017-11-21T12:51:23.546Z,2.90
2017-11-21T12:53:52.083Z,3.50
2017-11-21T12:56:20.398Z,3.27
2017-11-21T12:58:49.274Z,3.57
2017-11-21T13:01:17.155Z,3.03
2017-11-21T13:03:46.311Z,2.60
2017-11-21T13:06:14.155Z,3.60
2017-11-21T13:08:42.027Z,3.40
2017-11-21T13:11:11.752Z,3.40
2017-11-21T13:13:39.398Z,4.23
2017-11-21T13:16:07.283Z,4.23
2017-11-21T13:18:34.886Z,4.07
2017-11-21T13:21:03.049Z,3.60
2017-11-21T13:23:31.504Z,3.70
2017-11-21T13:25:59.976Z,3.13
2017-11-21T13:28:27.673Z,3.40
2017-11-21T13:30:56.088Z,3.13
2017-11-21T13:33:23.733Z,3.97
2017-11-21T13:35:51.439Z,3.60
2017-11-21T13:38:19.365Z,3.00
2017-11-21T13:40:47.250Z,3.37
2017-11-21T13:43:15.885Z,3.90
2017-11-21T13:45:45.107Z,2.80
2017-11-21T13:48:12.733Z,3.27
2017-11-21T13:50:41.562Z,3.57
2017-11-21T13:53:09.350Z,3.40
2017-11-21T13:55:36.968Z,3.37
2017-11-21T13:58:05.587Z,3.50
2017-11-21T14:00:34.279Z,3.73
2017-11-21T14:03:03.106Z,4.00
2017-11-21T14:05:35.597Z,4.67
2017-11-21T14:08:04.068Z,4.17
2017-11-21T14:10:31.996Z,3.80
2017-11-21T14:13:03.445Z,4.10
2017-11-21T14:15:31.295Z,3.37
2017-11-21T14:17:59.045Z,4.20
2017-11-21T14:20:26.829Z,4.90
2017-11-21T14:22:54.473Z,4.60
2017-11-21T14:25:22.133Z,7.57
2017-11-21T14:27:49.810Z,5.57
2017-11-21T14:30:17.417Z,6.10
2017-11-21T14:32:45.100Z,6.53
2017-11-21T14:35:12.911Z,7.90
2017-11-21T14:37:40.762Z,4.57
2017-11-21T14:40:08.389Z,3.20
2017-11-21T14:42:36.218Z,4.00
2017-11-21T14:45:03.971Z,4.23
2017-11-21T14:47:34.183Z,4.07
2017-11-21T14:50:01.811Z,4.43
2017-11-21T14:52:29.476Z,4.47
2017-11-21T14:54:57.112Z,3.10
2017-11-21T14:57:24.798Z,3.83
2017-11-21T14:59:53.586Z,4.40
2017-11-21T15:02:21.248Z,4.10
2017-11-21T15:04:48.913Z,3.90
2017-11-21T15:07:16.940Z,3.50
2017-11-21T15:09:46.142Z,3.83
2017-11-21T15:12:14.505Z,4.00
2017-11-21T15:14:42.168Z,4.37
2017-11-21T15:17:10.571Z,3.63
2017-11-21T15:19:38.434Z,4.83
2017-11-21T15:22:06.211Z,4.07
2017-11-21T15:24:33.874Z,5.07
2017-11-21T15:27:01.534Z,5.83
2017-11-21T15:29:29.149Z,5.03
2017-11-21T15:31:57.533Z,6.00
2017-11-21T15:34:25.906Z,5.60
2017-11-21T15:36:53.535Z,6.13
2017-11-21T15:39:21.210Z,5.10
2017-11-21T15:41:52.071Z,6.23
2017-11-21T15:44:20.505Z,6.47
2017-11-21T15:46:48.950Z,6.00
2017-11-21T15:49:16.529Z,6.43
2017-11-21T15:51:44.107Z,5.97
2017-11-21T15:54:11.846Z,6.80
2017-11-21T15:56:39.434Z,7.40
2017-11-21T15:59:07.062Z,8.10
2017-11-21T16:01:35.322Z,9.00
2017-11-21T16:04:02.981Z,10.90
2017-11-21T16:06:31.359Z,10.47
2017-11-21T16:08:59.987Z,12.57
2017-11-21T16:11:28.489Z,9.43
2017-11-21T16:13:56.100Z,11.00
2017-11-21T16:16:23.715Z,8.53
2017-11-21T16:18:53.503Z,9.77
2017-11-21T16:21:22.469Z,9.97
2017-11-21T16:23:50.102Z,9.80
2017-11-21T16:26:18.517Z,10.20
2017-11-21T16:28:46.138Z,9.67
2017-11-21T16:31:14.498Z,9.97
2017-11-21T16:33:42.162Z,9.50
2017-11-21T16:36:10.665Z,8.47
2017-11-21T16:38:38.298Z,9.23
2017-11-21T16:41:07.762Z,9.23
2017-11-21T16:43:35.520Z,8.40
2017-11-21T16:46:03.943Z,15.03
2017-11-21T16:48:31.522Z,12.77
2017-11-21T16:50:59.903Z,11.90
2017-11-21T16:53:27.489Z,11.53
2017-11-21T16:55:55.135Z,13.00
2017-11-21T16:58:22.768Z,11.93
2017-11-21T17:00:51.144Z,12.70
2017-11-21T17:03:19.571Z,11.90
2017-11-21T17:05:48.361Z,11.70
2017-11-21T17:08:17.156Z,10.47
2017-11-21T17:10:45.370Z,11.17
2017-11-21T17:13:13.763Z,16.10
2017-11-21T17:15:42.142Z,14.67
2017-11-21T17:18:10.570Z,12.40
2017-11-21T17:20:38.998Z,11.83
2017-11-21T17:23:07.395Z,11.43
2017-11-21T17:25:34.987Z,11.00
2017-11-21T17:28:02.594Z,10.83
2017-11-21T17:30:30.304Z,11.17
2017-11-21T17:32:57.922Z,11.00
2017-11-21T17:35:25.614Z,9.73
2017-11-21T17:37:53.192Z,10.30
2017-11-21T17:40:20.808Z,9.47
2017-11-21T17:42:48.450Z,9.80
2017-11-21T17:45:16.946Z,10.40
2017-11-21T17:47:44.620Z,9.70
2017-11-21T17:50:12.328Z,9.70
2017-11-21T17:52:40.176Z,10.40
2017-11-21T17:55:08.925Z,10.20
2017-11-21T17:57:36.609Z,10.20
2017-11-21T18:00:04.332Z,13.50
2017-11-21T18:02:32.870Z,10.70
2017-11-21T18:05:00.822Z,17.37
2017-11-21T18:07:28.422Z,16.77
2017-11-21T18:09:57.883Z,11.37
2017-11-21T18:12:25.651Z,15.20
2017-11-21T18:14:53.245Z,18.60
2017-11-21T18:17:20.979Z,17.43
2017-11-21T18:19:51.341Z,15.70
2017-11-21T18:22:19.708Z,14.23
2017-11-21T18:24:47.314Z,15.10
2017-11-21T18:27:17.741Z,13.87
2017-11-21T18:29:47.087Z,13.10
2017-11-21T18:32:14.669Z,14.10
2017-11-21T18:34:43.056Z,11.57
2017-11-21T18:37:10.649Z,11.73
2017-11-21T18:39:38.259Z,11.80
2017-11-21T18:42:06.630Z,12.90
2017-11-21T18:44:35.029Z,10.13
2017-11-21T18:47:03.656Z,10.97
2017-11-21T18:49:31.234Z,14.30
2017-11-21T18:51:58.825Z,12.93
2017-11-21T18:54:26.408Z,12.60
2017-11-21T18:56:54.340Z,13.00
2017-11-21T18:59:21.962Z,11.97
2017-11-21T19:01:49.559Z,12.00
2017-11-21T19:04:17.149Z,15.40
2017-11-21T19:06:44.738Z,15.23
2017-11-21T19:09:12.360Z,14.33
2017-11-21T19:11:40.055Z,14.93
2017-11-21T19:14:07.705Z,13.87
2017-11-21T19:16:35.263Z,13.20
2017-11-21T19:19:02.877Z,13.97
2017-11-21T19:21:30.490Z,15.07
2017-11-21T19:23:58.091Z,15.60
2017-11-21T19:26:25.714Z,15.90
2017-11-21T19:28:53.319Z,16.07
2017-11-21T19:31:20.925Z,15.07
2017-11-21T19:33:48.566Z,16.27
2017-11-21T19:36:16.181Z,14.23
2017-11-21T19:38:44.601Z,17.43
2017-11-21T19:41:12.217Z,17.33
2017-11-21T19:43:39.821Z,19.87
2017-11-21T19:46:07.444Z,21.90
2017-11-21T19:48:35.023Z,20.70
2017-11-21T19:51:03.380Z,19.17
2017-11-21T19:53:30.976Z,18.50
2017-11-21T19:55:58.601Z,21.03
2017-11-21T19:58:27.254Z,22.40
2017-11-21T20:00:54.855Z,19.13
2017-11-21T20:03:23.239Z,20.90
2017-11-21T20:05:51.608Z,23.20
2017-11-21T20:08:19.247Z,29.50
2017-11-21T20:10:46.870Z,38.07
2017-11-21T20:13:14.434Z,31.37
2017-11-21T20:15:42.312Z,24.80
2017-11-21T20:18:09.946Z,21.87
2017-11-21T20:20:37.530Z,25.53
2017-11-21T20:23:05.911Z,27.40
2017-11-21T20:25:33.686Z,22.63
2017-11-21T20:28:01.344Z,26.60
2017-11-21T20:30:28.993Z,23.93
2017-11-21T20:32:56.710Z,20.00
2017-11-21T20:35:24.357Z,20.83
2017-11-21T20:37:52.001Z,22.97
2017-11-21T20:40:19.632Z,22.40
2017-11-21T20:42:47.258Z,26.10
2017-11-21T20:45:14.984Z,28.07
2017-11-21T20:47:42.635Z,26.60
2017-11-21T20:50:10.271Z,22.80
2017-11-21T20:52:38.042Z,28.27
2017-11-21T20:55:05.684Z,22.60
2017-11-21T20:57:33.700Z,21.70
2017-11-21T21:00:01.305Z,21.37
2017-11-21T21:02:28.991Z,22.50
2017-11-21T21:04:56.612Z,20.07
2017-11-21T21:07:24.980Z,22.27
2017-11-21T21:09:54.148Z,19.97
2017-11-21T21:12:21.733Z,20.20
2017-11-21T21:14:50.124Z,22.23
2017-11-21T21:17:18.613Z,21.87
2017-11-21T21:19:47.004Z,20.77
2017-11-21T21:22:14.605Z,24.00
2017-11-21T21:24:42.190Z,21.57
2017-11-21T21:27:22.522Z,21.70
2017-11-21T21:29:50.139Z,21.17
2017-11-21T21:32:18.584Z,22.10
2017-11-21T21:34:46.957Z,21.43
2017-11-21T21:37:15.147Z,22.40
2017-11-21T21:39:43.507Z,19.70
2017-11-21T21:42:11.086Z,18.03
2017-11-21T21:44:39.464Z,20.20
2017-11-21T21:47:07.325Z,21.40
2017-11-21T21:49:36.047Z,20.07
2017-11-21T21:52:03.738Z,21.00
2017-11-21T21:54:31.367Z,22.37
2017-11-21T21:56:59.306Z,19.03
2017-11-21T21:59:26.846Z,22.23
2017-11-21T22:01:55.146Z,22.17
2017-11-21T22:04:22.839Z,21.57
2017-11-21T22:06:50.489Z,19.13
2017-11-21T22:09:17.998Z,23.67
2017-11-21T22:11:45.544Z,24.10
2017-11-21T22:14:13.104Z,22.07
2017-11-21T22:16:40.629Z,19.93
2017-11-21T22:19:08.175Z,25.03
2017-11-21T22:21:35.685Z,23.40
2017-11-21T22:24:03.292Z,23.30
2017-11-21T22:26:30.923Z,22.83
2017-11-21T22:28:59.265Z,22.87
2017-11-21T22:31:26.838Z,22.20
2017-11-21T22:33:55.115Z,23.70
2017-11-21T22:36:22.663Z,20.80
2017-11-21T22:38:50.191Z,21.13
2017-11-21T22:41:17.761Z,19.50
2017-11-21T22:43:45.276Z,18.97
2017-11-21T22:46:12.851Z,19.10
2017-11-21T22:48:40.385Z,19.57
2017-11-21T22:51:08.654Z,20.07
2017-11-21T22:53:36.960Z,18.13
2017-11-21T22:56:04.479Z,19.57
2017-11-21T22:58:32.004Z,18.60
2017-11-21T23:00:59.542Z,19.50
2017-11-21T23:03:27.053Z,18.13
2017-11-21T23:05:54.591Z,18.57
2017-11-21T23:08:22.916Z,16.77
2017-11-21T23:10:50.472Z,16.20
2017-11-21T23:13:18.022Z,17.43
2017-11-21T23:15:46.285Z,18.53
2017-11-21T23:18:14.572Z,13.80
2017-11-21T23:20:42.836Z,17.20
2017-11-21T23:23:11.157Z,17.23
2017-11-21T23:25:38.678Z,14.97
2017-11-21T23:28:06.984Z,16.27
2017-11-21T23:30:34.503Z,13.23
2017-11-21T23:33:02.819Z,16.37
2017-11-21T23:35:30.362Z,13.87
2017-11-21T23:37:57.894Z,14.53
2017-11-21T23:40:26.210Z,17.20
2017-11-21T23:42:53.756Z,13.80
2017-11-21T23:45:21.253Z,15.87
2017-11-21T23:47:48.824Z,18.60
2017-11-21T23:50:16.358Z,18.13
2017-11-21T23:52:43.854Z,19.50
2017-11-21T23:55:12.170Z,16.67
2017-11-21T23:57:39.674Z,19.17
